sensor_id;sensor_type;location;lat;lon;timestamp;P1;durP1;ratioP1;P2;durP2;ratioP2
5871;SDS011;2962;51.312;7.378;2023-01-23T00:02:14;198.60;;;25.87;;
5871;SDS011;2962;51.312;7.378;2023-01-23T00:04:39;75.53;;;22.83;;
5871;SDS011;2962;51.312;7.378;2023-01-23T00:07:04;87.73;;;21.57;;
5871;SDS011;2962;51.312;7.378;2023-01-23T00:09:30;42.13;;;19.17;;
5871;SDS011;2962;51.312;7.378;2023-01-23T00:11:55;45.20;;;19.47;;
5871;SDS011;2962;51.312;7.378;2023-01-23T00:14:21;55.40;;;20.20;;
5871;SDS011;2962;51.312;7.378;2023-01-23T00:16:46;64.77;;;19.40;;
5871;SDS011;2962;51.312;7.378;2023-01-23T00:19:11;64.03;;;20.00;;
5871;SDS011;2962;51.312;7.378;2023-01-23T00:21:37;48.67;;;19.07;;
5871;SDS011;2962;51.312;7.378;2023-01-23T00:24:03;46.30;;;19.40;;
5871;SDS011;2962;51.312;7.378;2023-01-23T00:26:29;43.63;;;19.23;;
5871;SDS011;2962;51.312;7.378;2023-01-23T00:28:58;80.97;;;20.52;;
5871;SDS011;2962;51.312;7.378;2023-01-23T00:31:25;106.90;;;21.27;;
5871;SDS011;2962;51.312;7.378;2023-01-23T00:33:57;122.82;;;23.50;;
5871;SDS011;2962;51.312;7.378;2023-01-23T00:36:24;227.60;;;26.38;;
5871;SDS011;2962;51.312;7.378;2023-01-23T00:38:53;227.02;;;25.60;;
5871;SDS011;2962;51.312;7.378;2023-01-23T00:41:18;52.50;;;21.80;;
5871;SDS011;2962;51.312;7.378;2023-01-23T00:43:43;47.23;;;19.50;;
5871;SDS011;2962;51.312;7.378;2023-01-23T00:46:10;121.75;;;22.48;;
5871;SDS011;2962;51.312;7.378;2023-01-23T00:48:36;419.50;;;33.67;;
5871;SDS011;2962;51.312;7.378;2023-01-23T00:51:01;368.00;;;31.97;;
5871;SDS011;2962;51.312;7.378;2023-01-23T00:53:26;336.57;;;34.13;;
5871;SDS011;2962;51.312;7.378;2023-01-23T00:55:52;972.87;;;61.63;;
5871;SDS011;2962;51.312;7.378;2023-01-23T00:58:18;703.25;;;48.80;;
5871;SDS011;2962;51.312;7.378;2023-01-23T01:00:43;1008.67;;;70.03;;
5871;SDS011;2962;51.312;7.378;2023-01-23T01:03:09;906.13;;;62.13;;
5871;SDS011;2962;51.312;7.378;2023-01-23T01:05:34;346.20;;;28.20;;
5871;SDS011;2962;51.312;7.378;2023-01-23T01:08:00;579.17;;;41.10;;
5871;SDS011;2962;51.312;7.378;2023-01-23T01:10:25;264.03;;;27.63;;
5871;SDS011;2962;51.312;7.378;2023-01-23T01:12:53;121.32;;;21.98;;
5871;SDS011;2962;51.312;7.378;2023-01-23T01:15:20;928.40;;;61.90;;
5871;SDS011;2962;51.312;7.378;2023-01-23T01:17:45;417.67;;;37.47;;
5871;SDS011;2962;51.312;7.378;2023-01-23T01:20:10;483.17;;;36.63;;
5871;SDS011;2962;51.312;7.378;2023-01-23T01:22:36;484.83;;;35.90;;
5871;SDS011;2962;51.312;7.378;2023-01-23T01:25:01;145.10;;;22.67;;
5871;SDS011;2962;51.312;7.378;2023-01-23T01:27:27;753.67;;;50.60;;
5871;SDS011;2962;51.312;7.378;2023-01-23T01:29:52;558.93;;;43.93;;
5871;SDS011;2962;51.312;7.378;2023-01-23T01:32:17;100.03;;;21.07;;
5871;SDS011;2962;51.312;7.378;2023-01-23T01:34:43;60.07;;;20.73;;
5871;SDS011;2962;51.312;7.378;2023-01-23T01:37:08;64.70;;;19.03;;
5871;SDS011;2962;51.312;7.378;2023-01-23T01:39:33;58.83;;;20.03;;
5871;SDS011;2962;51.312;7.378;2023-01-23T01:41:59;90.63;;;21.20;;
5871;SDS011;2962;51.312;7.378;2023-01-23T01:44:24;451.53;;;36.13;;
5871;SDS011;2962;51.312;7.378;2023-01-23T01:46:49;165.23;;;23.07;;
5871;SDS011;2962;51.312;7.378;2023-01-23T01:49:19;71.77;;;22.40;;
5871;SDS011;2962;51.312;7.378;2023-01-23T01:51:50;200.38;;;23.48;;
5871;SDS011;2962;51.312;7.378;2023-01-23T01:54:32;453.25;;;33.70;;
5871;SDS011;2962;51.312;7.378;2023-01-23T01:57:22;76.72;;;19.55;;
5871;SDS011;2962;51.312;7.378;2023-01-23T01:59:54;169.52;;;24.40;;
5871;SDS011;2962;51.312;7.378;2023-01-23T02:02:25;384.92;;;29.52;;
5871;SDS011;2962;51.312;7.378;2023-01-23T02:05:09;456.98;;;35.88;;
5871;SDS011;2962;51.312;7.378;2023-01-23T02:10:27;400.45;;;33.40;;
5871;SDS011;2962;51.312;7.378;2023-01-23T02:12:53;441.10;;;35.13;;
5871;SDS011;2962;51.312;7.378;2023-01-23T02:15:19;121.90;;;21.80;;
5871;SDS011;2962;51.312;7.378;2023-01-23T02:17:47;344.55;;;29.85;;
5871;SDS011;2962;51.312;7.378;2023-01-23T02:22:49;53.70;;;18.80;;
5871;SDS011;2962;51.312;7.378;2023-01-23T02:25:27;226.07;;;26.48;;
5871;SDS011;2962;51.312;7.378;2023-01-23T02:28:05;48.67;;;18.63;;
5871;SDS011;2962;51.312;7.378;2023-01-23T02:30:31;64.90;;;19.27;;
5871;SDS011;2962;51.312;7.378;2023-01-23T02:33:09;229.37;;;25.67;;
5871;SDS011;2962;51.312;7.378;2023-01-23T02:35:55;87.32;;;20.30;;
5871;SDS011;2962;51.312;7.378;2023-01-23T02:38:21;50.80;;;19.53;;
5871;SDS011;2962;51.312;7.378;2023-01-23T02:40:50;49.78;;;21.55;;
5871;SDS011;2962;51.312;7.378;2023-01-23T02:43:17;39.17;;;18.40;;
5871;SDS011;2962;51.312;7.378;2023-01-23T02:45:46;45.85;;;18.20;;
5871;SDS011;2962;51.312;7.378;2023-01-23T02:48:12;37.43;;;16.37;;
5871;SDS011;2962;51.312;7.378;2023-01-23T02:50:38;52.88;;;18.50;;
5871;SDS011;2962;51.312;7.378;2023-01-23T02:53:04;35.67;;;18.60;;
5871;SDS011;2962;51.312;7.378;2023-01-23T02:55:30;54.40;;;19.33;;
5871;SDS011;2962;51.312;7.378;2023-01-23T02:57:58;223.38;;;25.40;;
5871;SDS011;2962;51.312;7.378;2023-01-23T03:00:42;223.07;;;23.15;;
5871;SDS011;2962;51.312;7.378;2023-01-23T03:03:08;145.90;;;21.93;;
5871;SDS011;2962;51.312;7.378;2023-01-23T03:05:33;39.90;;;18.43;;
5871;SDS011;2962;51.312;7.378;2023-01-23T03:07:58;39.70;;;18.27;;
5871;SDS011;2962;51.312;7.378;2023-01-23T03:10:24;34.67;;;16.83;;
5871;SDS011;2962;51.312;7.378;2023-01-23T03:12:49;65.33;;;17.83;;
5871;SDS011;2962;51.312;7.378;2023-01-23T03:15:14;73.53;;;18.90;;
5871;SDS011;2962;51.312;7.378;2023-01-23T03:17:40;60.50;;;18.53;;
5871;SDS011;2962;51.312;7.378;2023-01-23T03:20:05;112.97;;;20.50;;
5871;SDS011;2962;51.312;7.378;2023-01-23T03:22:31;40.30;;;19.60;;
5871;SDS011;2962;51.312;7.378;2023-01-23T03:24:56;109.13;;;21.43;;
5871;SDS011;2962;51.312;7.378;2023-01-23T03:27:22;175.50;;;23.50;;
5871;SDS011;2962;51.312;7.378;2023-01-23T03:29:48;389.73;;;30.23;;
5871;SDS011;2962;51.312;7.378;2023-01-23T03:32:31;629.40;;;51.55;;
5871;SDS011;2962;51.312;7.378;2023-01-23T03:34:57;88.90;;;20.17;;
5871;SDS011;2962;51.312;7.378;2023-01-23T03:37:23;200.10;;;22.00;;
5871;SDS011;2962;51.312;7.378;2023-01-23T03:39:49;49.43;;;18.83;;
5871;SDS011;2962;51.312;7.378;2023-01-23T03:42:33;43.90;;;18.48;;
5871;SDS011;2962;51.312;7.378;2023-01-23T03:44:58;48.43;;;17.20;;
5871;SDS011;2962;51.312;7.378;2023-01-23T03:47:24;47.80;;;19.20;;
5871;SDS011;2962;51.312;7.378;2023-01-23T03:49:50;44.40;;;18.75;;
5871;SDS011;2962;51.312;7.378;2023-01-23T03:52:16;78.13;;;19.10;;
5871;SDS011;2962;51.312;7.378;2023-01-23T03:54:41;59.67;;;18.47;;
5871;SDS011;2962;51.312;7.378;2023-01-23T03:57:06;39.63;;;16.23;;
5871;SDS011;2962;51.312;7.378;2023-01-23T03:59:32;143.97;;;20.33;;
5871;SDS011;2962;51.312;7.378;2023-01-23T04:01:57;69.90;;;20.00;;
5871;SDS011;2962;51.312;7.378;2023-01-23T04:04:24;73.72;;;18.67;;
5871;SDS011;2962;51.312;7.378;2023-01-23T04:06:50;164.83;;;23.80;;
5871;SDS011;2962;51.312;7.378;2023-01-23T04:09:15;55.13;;;18.60;;
5871;SDS011;2962;51.312;7.378;2023-01-23T04:11:41;82.53;;;19.87;;
5871;SDS011;2962;51.312;7.378;2023-01-23T04:14:06;65.87;;;18.20;;
5871;SDS011;2962;51.312;7.378;2023-01-23T04:16:31;58.47;;;18.17;;
5871;SDS011;2962;51.312;7.378;2023-01-23T04:18:57;69.40;;;19.27;;
5871;SDS011;2962;51.312;7.378;2023-01-23T04:21:22;44.10;;;18.17;;
5871;SDS011;2962;51.312;7.378;2023-01-23T04:23:48;33.73;;;16.00;;
5871;SDS011;2962;51.312;7.378;2023-01-23T04:26:13;36.67;;;15.70;;
5871;SDS011;2962;51.312;7.378;2023-01-23T04:28:38;32.73;;;17.10;;
5871;SDS011;2962;51.312;7.378;2023-01-23T04:31:04;32.70;;;15.70;;
5871;SDS011;2962;51.312;7.378;2023-01-23T04:33:29;32.80;;;16.07;;
5871;SDS011;2962;51.312;7.378;2023-01-23T04:35:56;28.30;;;15.70;;
5871;SDS011;2962;51.312;7.378;2023-01-23T04:38:24;24.90;;;14.20;;
5871;SDS011;2962;51.312;7.378;2023-01-23T04:40:51;27.42;;;14.77;;
5871;SDS011;2962;51.312;7.378;2023-01-23T04:43:18;29.77;;;15.07;;
5871;SDS011;2962;51.312;7.378;2023-01-23T04:45:43;27.37;;;15.10;;
5871;SDS011;2962;51.312;7.378;2023-01-23T04:48:09;32.03;;;16.33;;
5871;SDS011;2962;51.312;7.378;2023-01-23T04:50:38;26.08;;;14.63;;
5871;SDS011;2962;51.312;7.378;2023-01-23T04:53:03;29.10;;;15.23;;
5871;SDS011;2962;51.312;7.378;2023-01-23T04:55:29;28.57;;;15.63;;
5871;SDS011;2962;51.312;7.378;2023-01-23T04:57:54;33.37;;;16.10;;
5871;SDS011;2962;51.312;7.378;2023-01-23T05:00:20;36.53;;;17.37;;
5871;SDS011;2962;51.312;7.378;2023-01-23T05:02:46;59.73;;;18.20;;
5871;SDS011;2962;51.312;7.378;2023-01-23T05:05:12;131.80;;;21.30;;
5871;SDS011;2962;51.312;7.378;2023-01-23T05:07:38;275.70;;;28.30;;
5871;SDS011;2962;51.312;7.378;2023-01-23T05:10:04;150.27;;;22.40;;
5871;SDS011;2962;51.312;7.378;2023-01-23T05:12:30;59.40;;;19.00;;
5871;SDS011;2962;51.312;7.378;2023-01-23T05:14:55;44.87;;;18.80;;
5871;SDS011;2962;51.312;7.378;2023-01-23T05:17:21;52.80;;;18.27;;
5871;SDS011;2962;51.312;7.378;2023-01-23T05:19:46;56.43;;;19.30;;
5871;SDS011;2962;51.312;7.378;2023-01-23T05:22:11;74.20;;;19.73;;
5871;SDS011;2962;51.312;7.378;2023-01-23T05:24:37;76.97;;;18.30;;
5871;SDS011;2962;51.312;7.378;2023-01-23T05:27:02;47.30;;;17.10;;
5871;SDS011;2962;51.312;7.378;2023-01-23T05:29:27;94.03;;;20.93;;
5871;SDS011;2962;51.312;7.378;2023-01-23T05:31:53;35.27;;;16.33;;
5871;SDS011;2962;51.312;7.378;2023-01-23T05:34:18;48.07;;;16.50;;
5871;SDS011;2962;51.312;7.378;2023-01-23T05:36:43;51.10;;;18.23;;
5871;SDS011;2962;51.312;7.378;2023-01-23T05:39:08;55.43;;;17.57;;
5871;SDS011;2962;51.312;7.378;2023-01-23T05:41:34;112.90;;;21.63;;
5871;SDS011;2962;51.312;7.378;2023-01-23T05:43:59;60.17;;;18.00;;
5871;SDS011;2962;51.312;7.378;2023-01-23T05:46:25;51.13;;;17.93;;
5871;SDS011;2962;51.312;7.378;2023-01-23T05:48:50;143.70;;;20.97;;
5871;SDS011;2962;51.312;7.378;2023-01-23T05:51:16;51.37;;;17.53;;
5871;SDS011;2962;51.312;7.378;2023-01-23T05:53:42;71.50;;;18.55;;
5871;SDS011;2962;51.312;7.378;2023-01-23T05:56:07;54.37;;;19.17;;
5871;SDS011;2962;51.312;7.378;2023-01-23T05:58:34;232.77;;;23.20;;
5871;SDS011;2962;51.312;7.378;2023-01-23T06:01:00;160.13;;;22.70;;
5871;SDS011;2962;51.312;7.378;2023-01-23T06:03:27;387.45;;;35.30;;
5871;SDS011;2962;51.312;7.378;2023-01-23T06:05:53;522.50;;;38.80;;
5871;SDS011;2962;51.312;7.378;2023-01-23T06:08:18;282.07;;;27.30;;
5871;SDS011;2962;51.312;7.378;2023-01-23T06:10:43;95.97;;;18.53;;
5871;SDS011;2962;51.312;7.378;2023-01-23T06:13:08;604.70;;;44.03;;
5871;SDS011;2962;51.312;7.378;2023-01-23T06:15:34;298.33;;;28.13;;
5871;SDS011;2962;51.312;7.378;2023-01-23T06:17:59;488.27;;;34.07;;
5871;SDS011;2962;51.312;7.378;2023-01-23T06:20:24;387.30;;;29.27;;
5871;SDS011;2962;51.312;7.378;2023-01-23T06:22:50;207.17;;;25.17;;
5871;SDS011;2962;51.312;7.378;2023-01-23T06:25:15;326.90;;;27.37;;
5871;SDS011;2962;51.312;7.378;2023-01-23T06:27:42;45.88;;;17.45;;
5871;SDS011;2962;51.312;7.378;2023-01-23T06:30:07;484.67;;;36.53;;
5871;SDS011;2962;51.312;7.378;2023-01-23T06:32:33;417.92;;;32.03;;
5871;SDS011;2962;51.312;7.378;2023-01-23T06:34:58;52.87;;;16.60;;
5871;SDS011;2962;51.312;7.378;2023-01-23T06:37:24;124.97;;;20.80;;
5871;SDS011;2962;51.312;7.378;2023-01-23T06:39:49;493.17;;;38.10;;
5871;SDS011;2962;51.312;7.378;2023-01-23T06:42:15;86.95;;;21.45;;
5871;SDS011;2962;51.312;7.378;2023-01-23T06:44:41;171.53;;;23.17;;
5871;SDS011;2962;51.312;7.378;2023-01-23T06:47:07;462.45;;;34.08;;
5871;SDS011;2962;51.312;7.378;2023-01-23T06:49:32;98.87;;;19.33;;
5871;SDS011;2962;51.312;7.378;2023-01-23T06:51:57;244.80;;;22.53;;
5871;SDS011;2962;51.312;7.378;2023-01-23T06:54:23;250.87;;;24.87;;
5871;SDS011;2962;51.312;7.378;2023-01-23T06:56:48;416.73;;;28.07;;
5871;SDS011;2962;51.312;7.378;2023-01-23T06:59:13;388.10;;;30.17;;
5871;SDS011;2962;51.312;7.378;2023-01-23T07:01:39;157.00;;;20.20;;
5871;SDS011;2962;51.312;7.378;2023-01-23T07:04:05;518.70;;;33.30;;
5871;SDS011;2962;51.312;7.378;2023-01-23T07:06:30;158.23;;;21.77;;
5871;SDS011;2962;51.312;7.378;2023-01-23T07:08:55;226.63;;;24.23;;
5871;SDS011;2962;51.312;7.378;2023-01-23T07:11:20;325.97;;;24.50;;
5871;SDS011;2962;51.312;7.378;2023-01-23T07:13:46;94.93;;;19.13;;
5871;SDS011;2962;51.312;7.378;2023-01-23T07:16:11;227.63;;;23.37;;
5871;SDS011;2962;51.312;7.378;2023-01-23T07:18:36;120.07;;;20.40;;
5871;SDS011;2962;51.312;7.378;2023-01-23T07:21:05;220.40;;;20.10;;
5871;SDS011;2962;51.312;7.378;2023-01-23T07:23:31;303.67;;;26.10;;
5871;SDS011;2962;51.312;7.378;2023-01-23T07:26:01;76.57;;;18.65;;
5871;SDS011;2962;51.312;7.378;2023-01-23T07:28:28;176.88;;;20.00;;
5871;SDS011;2962;51.312;7.378;2023-01-23T07:30:56;273.27;;;24.50;;
5871;SDS011;2962;51.312;7.378;2023-01-23T07:33:22;324.77;;;27.30;;
5871;SDS011;2962;51.312;7.378;2023-01-23T07:35:47;262.33;;;23.73;;
5871;SDS011;2962;51.312;7.378;2023-01-23T07:38:13;252.90;;;22.53;;
5871;SDS011;2962;51.312;7.378;2023-01-23T07:40:38;285.97;;;25.30;;
5871;SDS011;2962;51.312;7.378;2023-01-23T07:43:06;339.35;;;24.52;;
5871;SDS011;2962;51.312;7.378;2023-01-23T07:45:31;203.50;;;22.30;;
5871;SDS011;2962;51.312;7.378;2023-01-23T07:47:57;133.37;;;18.13;;
5871;SDS011;2962;51.312;7.378;2023-01-23T07:50:22;128.70;;;18.40;;
5871;SDS011;2962;51.312;7.378;2023-01-23T07:52:47;121.67;;;19.60;;
5871;SDS011;2962;51.312;7.378;2023-01-23T07:55:13;302.23;;;28.77;;
5871;SDS011;2962;51.312;7.378;2023-01-23T07:57:38;229.87;;;25.50;;
5871;SDS011;2962;51.312;7.378;2023-01-23T08:00:03;433.70;;;29.33;;
5871;SDS011;2962;51.312;7.378;2023-01-23T08:02:29;246.13;;;22.47;;
5871;SDS011;2962;51.312;7.378;2023-01-23T08:04:55;369.73;;;30.20;;
5871;SDS011;2962;51.312;7.378;2023-01-23T08:07:20;486.20;;;31.67;;
5871;SDS011;2962;51.312;7.378;2023-01-23T08:09:45;378.83;;;28.10;;
5871;SDS011;2962;51.312;7.378;2023-01-23T08:12:11;263.13;;;26.13;;
5871;SDS011;2962;51.312;7.378;2023-01-23T08:14:37;171.20;;;20.70;;
5871;SDS011;2962;51.312;7.378;2023-01-23T08:17:03;717.03;;;51.97;;
5871;SDS011;2962;51.312;7.378;2023-01-23T08:19:29;408.70;;;34.20;;
5871;SDS011;2962;51.312;7.378;2023-01-23T08:21:54;425.53;;;33.70;;
5871;SDS011;2962;51.312;7.378;2023-01-23T08:24:19;335.30;;;25.90;;
5871;SDS011;2962;51.312;7.378;2023-01-23T08:26:45;203.93;;;22.40;;
5871;SDS011;2962;51.312;7.378;2023-01-23T08:29:10;237.77;;;23.40;;
5871;SDS011;2962;51.312;7.378;2023-01-23T08:31:37;440.93;;;34.70;;
5871;SDS011;2962;51.312;7.378;2023-01-23T08:34:03;116.78;;;18.73;;
5871;SDS011;2962;51.312;7.378;2023-01-23T08:36:28;59.03;;;18.90;;
5871;SDS011;2962;51.312;7.378;2023-01-23T08:38:54;81.97;;;18.70;;
5871;SDS011;2962;51.312;7.378;2023-01-23T08:41:20;63.60;;;18.77;;
5871;SDS011;2962;51.312;7.378;2023-01-23T08:43:45;42.13;;;18.87;;
5871;SDS011;2962;51.312;7.378;2023-01-23T08:46:10;43.00;;;19.23;;
5871;SDS011;2962;51.312;7.378;2023-01-23T08:48:36;38.03;;;16.77;;
5871;SDS011;2962;51.312;7.378;2023-01-23T08:51:03;40.67;;;18.23;;
5871;SDS011;2962;51.312;7.378;2023-01-23T08:53:34;36.92;;;15.07;;
5871;SDS011;2962;51.312;7.378;2023-01-23T08:56:22;45.77;;;18.50;;
5871;SDS011;2962;51.312;7.378;2023-01-23T08:58:46;48.05;;;19.35;;
5871;SDS011;2962;51.312;7.378;2023-01-23T09:01:19;50.47;;;18.57;;
5871;SDS011;2962;51.312;7.378;2023-01-23T09:03:48;38.22;;;18.75;;
5871;SDS011;2962;51.312;7.378;2023-01-23T09:06:15;52.00;;;18.70;;
5871;SDS011;2962;51.312;7.378;2023-01-23T09:08:43;48.17;;;19.83;;
5871;SDS011;2962;51.312;7.378;2023-01-23T09:11:09;55.40;;;19.87;;
5871;SDS011;2962;51.312;7.378;2023-01-23T09:13:35;45.53;;;19.33;;
5871;SDS011;2962;51.312;7.378;2023-01-23T09:16:01;42.77;;;17.63;;
5871;SDS011;2962;51.312;7.378;2023-01-23T09:18:27;42.33;;;19.15;;
5871;SDS011;2962;51.312;7.378;2023-01-23T09:20:53;33.60;;;17.17;;
5871;SDS011;2962;51.312;7.378;2023-01-23T09:23:19;45.67;;;20.17;;
5871;SDS011;2962;51.312;7.378;2023-01-23T09:25:45;41.47;;;18.60;;
5871;SDS011;2962;51.312;7.378;2023-01-23T09:28:10;38.33;;;19.13;;
5871;SDS011;2962;51.312;7.378;2023-01-23T09:30:36;36.87;;;18.43;;
5871;SDS011;2962;51.312;7.378;2023-01-23T09:33:01;41.40;;;19.23;;
5871;SDS011;2962;51.312;7.378;2023-01-23T09:35:27;38.13;;;19.70;;
5871;SDS011;2962;51.312;7.378;2023-01-23T09:37:52;41.47;;;20.00;;
5871;SDS011;2962;51.312;7.378;2023-01-23T09:40:24;43.33;;;20.40;;
5871;SDS011;2962;51.312;7.378;2023-01-23T09:42:59;36.53;;;18.38;;
5871;SDS011;2962;51.312;7.378;2023-01-23T09:45:32;41.58;;;19.05;;
5871;SDS011;2962;51.312;7.378;2023-01-23T09:48:18;38.00;;;18.70;;
5871;SDS011;2962;51.312;7.378;2023-01-23T09:50:52;42.53;;;19.13;;
5871;SDS011;2962;51.312;7.378;2023-01-23T09:53:21;38.97;;;19.23;;
5871;SDS011;2962;51.312;7.378;2023-01-23T09:55:58;36.08;;;17.25;;
5871;SDS011;2962;51.312;7.378;2023-01-23T09:58:27;35.55;;;18.35;;
5871;SDS011;2962;51.312;7.378;2023-01-23T10:00:59;35.30;;;19.17;;
5871;SDS011;2962;51.312;7.378;2023-01-23T10:03:25;31.47;;;17.80;;
5871;SDS011;2962;51.312;7.378;2023-01-23T10:06:03;33.45;;;18.15;;
5871;SDS011;2962;51.312;7.378;2023-01-23T10:08:37;33.67;;;17.00;;
5871;SDS011;2962;51.312;7.378;2023-01-23T10:11:25;33.22;;;15.60;;
5871;SDS011;2962;51.312;7.378;2023-01-23T10:14:27;34.38;;;16.50;;
5871;SDS011;2962;51.312;7.378;2023-01-23T10:25:36;26.55;;;16.15;;
5871;SDS011;2962;51.312;7.378;2023-01-23T10:28:26;31.52;;;17.27;;
5871;SDS011;2962;51.312;7.378;2023-01-23T10:30:58;24.30;;;15.80;;
5871;SDS011;2962;51.312;7.378;2023-01-23T10:33:30;31.10;;;16.10;;
5871;SDS011;2962;51.312;7.378;2023-01-23T10:39:14;27.98;;;16.00;;
5871;SDS011;2962;51.312;7.378;2023-01-23T10:41:44;25.52;;;14.13;;
5871;SDS011;2962;51.312;7.378;2023-01-23T10:44:14;25.38;;;15.43;;
5871;SDS011;2962;51.312;7.378;2023-01-23T10:46:44;28.98;;;14.82;;
5871;SDS011;2962;51.312;7.378;2023-01-23T10:49:23;29.45;;;15.95;;
5871;SDS011;2962;51.312;7.378;2023-01-23T10:51:53;24.23;;;14.57;;
5871;SDS011;2962;51.312;7.378;2023-01-23T10:54:22;28.83;;;14.77;;
5871;SDS011;2962;51.312;7.378;2023-01-23T10:57:03;25.17;;;14.68;;
5871;SDS011;2962;51.312;7.378;2023-01-23T10:59:56;23.15;;;14.75;;
5871;SDS011;2962;51.312;7.378;2023-01-23T11:02:30;30.92;;;15.05;;
5871;SDS011;2962;51.312;7.378;2023-01-23T11:04:57;26.80;;;15.10;;
5871;SDS011;2962;51.312;7.378;2023-01-23T11:07:24;23.67;;;14.43;;
5871;SDS011;2962;51.312;7.378;2023-01-23T11:10:01;22.65;;;14.45;;
5871;SDS011;2962;51.312;7.378;2023-01-23T11:12:46;20.92;;;13.52;;
5871;SDS011;2962;51.312;7.378;2023-01-23T11:15:22;22.38;;;13.20;;
5871;SDS011;2962;51.312;7.378;2023-01-23T11:17:50;21.02;;;13.35;;
5871;SDS011;2962;51.312;7.378;2023-01-23T11:20:36;21.02;;;12.93;;
5871;SDS011;2962;51.312;7.378;2023-01-23T11:23:16;19.45;;;12.50;;
5871;SDS011;2962;51.312;7.378;2023-01-23T11:25:42;22.35;;;12.90;;
5871;SDS011;2962;51.312;7.378;2023-01-23T11:28:17;15.68;;;11.52;;
5871;SDS011;2962;51.312;7.378;2023-01-23T11:34:25;18.70;;;12.60;;
5871;SDS011;2962;51.312;7.378;2023-01-23T11:36:47;19.42;;;12.63;;
5871;SDS011;2962;51.312;7.378;2023-01-23T11:39:21;20.02;;;12.40;;
5871;SDS011;2962;51.312;7.378;2023-01-23T11:42:00;23.55;;;13.45;;
5871;SDS011;2962;51.312;7.378;2023-01-23T11:44:26;19.23;;;13.10;;
5871;SDS011;2962;51.312;7.378;2023-01-23T11:52:58;17.30;;;12.13;;
5871;SDS011;2962;51.312;7.378;2023-01-23T11:58:21;18.02;;;12.30;;
5871;SDS011;2962;51.312;7.378;2023-01-23T12:00:57;23.33;;;14.18;;
5871;SDS011;2962;51.312;7.378;2023-01-23T12:06:20;31.05;;;13.90;;
5871;SDS011;2962;51.312;7.378;2023-01-23T12:09:09;19.77;;;12.65;;
5871;SDS011;2962;51.312;7.378;2023-01-23T12:14:39;26.05;;;15.18;;
5871;SDS011;2962;51.312;7.378;2023-01-23T12:25:59;24.15;;;13.63;;
5871;SDS011;2962;51.312;7.378;2023-01-23T12:34:22;26.75;;;16.30;;
5871;SDS011;2962;51.312;7.378;2023-01-23T12:42:40;25.02;;;14.95;;
5871;SDS011;2962;51.312;7.378;2023-01-23T12:45:25;23.02;;;13.82;;
5871;SDS011;2962;51.312;7.378;2023-01-23T12:47:59;26.77;;;15.13;;
5871;SDS011;2962;51.312;7.378;2023-01-23T12:53:14;24.48;;;14.98;;
5871;SDS011;2962;51.312;7.378;2023-01-23T12:55:52;25.45;;;15.50;;
5871;SDS011;2962;51.312;7.378;2023-01-23T12:58:28;24.05;;;15.35;;
5871;SDS011;2962;51.312;7.378;2023-01-23T13:01:02;24.02;;;15.90;;
5871;SDS011;2962;51.312;7.378;2023-01-23T13:09:59;24.05;;;14.57;;
5871;SDS011;2962;51.312;7.378;2023-01-23T13:12:29;25.48;;;14.57;;
5871;SDS011;2962;51.312;7.378;2023-01-23T13:23:19;24.70;;;13.48;;
5871;SDS011;2962;51.312;7.378;2023-01-23T13:25:44;23.60;;;14.55;;
5871;SDS011;2962;51.312;7.378;2023-01-23T13:31:05;19.50;;;13.27;;
5871;SDS011;2962;51.312;7.378;2023-01-23T13:33:47;22.45;;;13.65;;
5871;SDS011;2962;51.312;7.378;2023-01-23T13:39:01;23.10;;;14.93;;
5871;SDS011;2962;51.312;7.378;2023-01-23T13:41:45;20.05;;;14.02;;
5871;SDS011;2962;51.312;7.378;2023-01-23T13:44:19;22.80;;;15.20;;
5871;SDS011;2962;51.312;7.378;2023-01-23T13:49:37;24.33;;;14.60;;
5871;SDS011;2962;51.312;7.378;2023-01-23T13:52:25;24.48;;;13.55;;
5871;SDS011;2962;51.312;7.378;2023-01-23T13:55:15;24.38;;;14.73;;
5871;SDS011;2962;51.312;7.378;2023-01-23T13:58:15;23.60;;;15.13;;
5871;SDS011;2962;51.312;7.378;2023-01-23T14:01:29;29.83;;;16.70;;
5871;SDS011;2962;51.312;7.378;2023-01-23T14:04:00;27.27;;;15.85;;
5871;SDS011;2962;51.312;7.378;2023-01-23T14:06:49;23.58;;;15.45;;
5871;SDS011;2962;51.312;7.378;2023-01-23T14:09:32;29.90;;;15.80;;
5871;SDS011;2962;51.312;7.378;2023-01-23T14:11:58;24.88;;;14.18;;
5871;SDS011;2962;51.312;7.378;2023-01-23T14:14:34;27.58;;;15.70;;
5871;SDS011;2962;51.312;7.378;2023-01-23T14:17:19;22.33;;;14.05;;
5871;SDS011;2962;51.312;7.378;2023-01-23T14:22:19;28.98;;;15.23;;
5871;SDS011;2962;51.312;7.378;2023-01-23T14:24:51;27.70;;;15.50;;
5871;SDS011;2962;51.312;7.378;2023-01-23T14:27:35;27.30;;;15.60;;
5871;SDS011;2962;51.312;7.378;2023-01-23T14:32:39;24.83;;;15.00;;
5871;SDS011;2962;51.312;7.378;2023-01-23T14:35:15;22.03;;;14.03;;
5871;SDS011;2962;51.312;7.378;2023-01-23T14:37:41;26.65;;;16.35;;
5871;SDS011;2962;51.312;7.378;2023-01-23T14:40:17;27.27;;;16.53;;
5871;SDS011;2962;51.312;7.378;2023-01-23T14:42:44;21.67;;;14.50;;
5871;SDS011;2962;51.312;7.378;2023-01-23T14:45:09;23.07;;;14.03;;
5871;SDS011;2962;51.312;7.378;2023-01-23T14:47:38;23.88;;;14.70;;
5871;SDS011;2962;51.312;7.378;2023-01-23T14:50:08;22.08;;;14.15;;
5871;SDS011;2962;51.312;7.378;2023-01-23T14:52:39;23.52;;;13.63;;
5871;SDS011;2962;51.312;7.378;2023-01-23T14:55:17;25.80;;;13.70;;
5871;SDS011;2962;51.312;7.378;2023-01-23T14:57:45;30.33;;;14.68;;
5871;SDS011;2962;51.312;7.378;2023-01-23T15:00:12;22.57;;;14.90;;
5871;SDS011;2962;51.312;7.378;2023-01-23T15:02:42;21.83;;;14.30;;
5871;SDS011;2962;51.312;7.378;2023-01-23T15:08:36;20.13;;;13.07;;
5871;SDS011;2962;51.312;7.378;2023-01-23T15:13:08;21.67;;;13.93;;
5871;SDS011;2962;51.312;7.378;2023-01-23T15:21:34;24.83;;;14.60;;
5871;SDS011;2962;51.312;7.378;2023-01-23T15:24:05;24.63;;;15.48;;
5871;SDS011;2962;51.312;7.378;2023-01-23T15:26:42;26.35;;;14.68;;
5871;SDS011;2962;51.312;7.378;2023-01-23T15:36:38;24.63;;;15.60;;
5871;SDS011;2962;51.312;7.378;2023-01-23T15:39:17;24.10;;;14.65;;
5871;SDS011;2962;51.312;7.378;2023-01-23T15:41:50;27.67;;;15.45;;
5871;SDS011;2962;51.312;7.378;2023-01-23T15:44:19;23.23;;;13.60;;
5871;SDS011;2962;51.312;7.378;2023-01-23T15:46:45;20.30;;;13.32;;
5871;SDS011;2962;51.312;7.378;2023-01-23T15:49:11;20.50;;;13.07;;
5871;SDS011;2962;51.312;7.378;2023-01-23T15:51:37;22.73;;;13.37;;
5871;SDS011;2962;51.312;7.378;2023-01-23T15:54:02;18.97;;;12.33;;
5871;SDS011;2962;51.312;7.378;2023-01-23T15:56:29;16.87;;;12.13;;
5871;SDS011;2962;51.312;7.378;2023-01-23T15:58:57;19.88;;;12.80;;
5871;SDS011;2962;51.312;7.378;2023-01-23T16:01:24;20.50;;;12.98;;
5871;SDS011;2962;51.312;7.378;2023-01-23T16:03:50;19.83;;;12.90;;
5871;SDS011;2962;51.312;7.378;2023-01-23T16:06:19;18.90;;;11.67;;
5871;SDS011;2962;51.312;7.378;2023-01-23T16:08:48;17.73;;;11.40;;
5871;SDS011;2962;51.312;7.378;2023-01-23T16:11:15;21.67;;;13.15;;
5871;SDS011;2962;51.312;7.378;2023-01-23T16:13:40;23.70;;;12.87;;
5871;SDS011;2962;51.312;7.378;2023-01-23T16:16:13;20.37;;;13.27;;
5871;SDS011;2962;51.312;7.378;2023-01-23T16:18:39;16.67;;;11.18;;
5871;SDS011;2962;51.312;7.378;2023-01-23T16:21:04;16.17;;;12.33;;
5871;SDS011;2962;51.312;7.378;2023-01-23T16:23:30;18.07;;;12.00;;
5871;SDS011;2962;51.312;7.378;2023-01-23T16:25:55;13.17;;;9.93;;
5871;SDS011;2962;51.312;7.378;2023-01-23T16:28:21;23.13;;;13.73;;
5871;SDS011;2962;51.312;7.378;2023-01-23T16:30:50;17.88;;;13.00;;
5871;SDS011;2962;51.312;7.378;2023-01-23T16:33:16;18.63;;;11.73;;
5871;SDS011;2962;51.312;7.378;2023-01-23T16:35:43;18.35;;;12.48;;
5871;SDS011;2962;51.312;7.378;2023-01-23T16:38:17;17.80;;;11.10;;
5871;SDS011;2962;51.312;7.378;2023-01-23T16:40:48;17.80;;;11.90;;